Time;durP1;ratioP1;P1;durP2;ratioP2;P2;SDS_P1;SDS_P2;PMS_P1;PMS_P2;Temp;Humidity;BMP_temperature;BMP_pressure;BME280_temperature;BME280_humidity;BME280_pressure;Samples;Min_cycle;Max_cycle;Signal;HPM_P1;HPM_P2
2023/09/13 00:02:21;;;;;;;40.53;32.88;;;18.40;90.70;;;;;;5112784;28;20170;-89
2023/09/13 00:04:47;;;;;;;41.97;34.28;;;18.40;90.80;;;;;;5112781;28;20194;-89
2023/09/13 00:07:12;;;;;;;40.97;34.33;;;18.40;91.00;;;;;;5114184;28;20185;-88
2023/09/13 00:09:41;;;;;;;38.30;34.08;;;18.40;91.10;;;;;;5112940;28;20195;-89
2023/09/13 00:12:07;;;;;;;39.25;33.78;;;18.40;91.20;;;;;;5112982;28;20554;-88
2023/09/13 00:14:32;;;;;;;43.97;36.00;;;18.40;91.30;;;;;;5112937;28;20209;-90
2023/09/13 00:16:59;;;;;;;42.53;34.50;;;18.40;91.40;;;;;;5112627;28;20197;-89
2023/09/13 00:19:27;;;;;;;42.75;35.10;;;18.40;91.50;;;;;;5114198;28;20158;-89
2023/09/13 00:21:53;;;;;;;42.97;34.80;;;18.40;91.60;;;;;;5112766;28;20174;-89
2023/09/13 00:24:18;;;;;;;40.30;33.83;;;18.40;91.70;;;;;;5112290;28;20200;-89
2023/09/13 00:26:44;;;;;;;43.40;33.97;;;18.40;91.70;;;;;;5112393;28;20177;-90
2023/09/13 00:29:09;;;;;;;46.00;34.78;;;18.40;91.80;;;;;;5113057;28;20227;-90
2023/09/13 00:31:35;;;;;;;50.20;34.85;;;18.40;91.90;;;;;;5113128;28;20181;-91
2023/09/13 00:34:01;;;;;;;45.03;33.95;;;18.40;92.00;;;;;;5116156;28;20621;-89
2023/09/13 00:36:26;;;;;;;46.03;35.30;;;18.50;92.00;;;;;;5116317;28;20219;-90
2023/09/13 00:38:52;;;;;;;42.65;33.70;;;18.40;92.00;;;;;;5117612;28;20227;-89
2023/09/13 00:41:18;;;;;;;44.60;35.33;;;18.40;92.00;;;;;;5117062;28;20223;-90
2023/09/13 00:43:43;;;;;;;42.88;33.88;;;18.40;92.10;;;;;;5117194;28;20267;-89
2023/09/13 00:46:09;;;;;;;47.78;34.85;;;18.40;92.10;;;;;;5117609;28;20180;-89
2023/09/13 00:48:35;;;;;;;49.25;35.10;;;18.40;92.20;;;;;;5118137;28;20664;-89
2023/09/13 00:51:02;;;;;;;49.17;35.33;;;18.40;92.30;;;;;;5117199;28;20174;-89
2023/09/13 00:53:30;;;;;;;43.10;33.65;;;18.30;92.50;;;;;;5116945;28;20194;-89
2023/09/13 00:55:56;;;;;;;44.63;34.65;;;18.30;92.50;;;;;;5116658;28;20196;-89
2023/09/13 00:58:22;;;;;;;47.58;36.42;;;18.30;92.70;;;;;;5116893;28;20257;-89
2023/09/13 01:00:49;;;;;;;43.50;34.20;;;18.20;92.80;;;;;;5116591;28;20672;-89
2023/09/13 01:03:16;;;;;;;43.60;32.72;;;18.20;92.90;;;;;;5116678;28;20194;-89
2023/09/13 01:05:43;;;;;;;46.50;33.22;;;18.20;93.10;;;;;;5117015;28;20177;-89
2023/09/13 01:08:08;;;;;;;47.90;32.33;;;18.20;93.20;;;;;;5117582;27;20223;-89
2023/09/13 01:10:34;;;;;;;39.75;30.15;;;18.20;93.30;;;;;;5116399;28;20170;-89
2023/09/13 01:13:00;;;;;;;41.20;29.70;;;18.20;93.40;;;;;;5116211;28;20197;-91
2023/09/13 01:15:30;;;;;;;46.38;29.55;;;18.10;93.50;;;;;;5116452;28;20174;-89
2023/09/13 01:18:08;;;;;;;40.17;30.05;;;18.20;93.60;;;;;;5115879;28;20190;-89
2023/09/13 01:20:42;;;;;;;43.15;31.85;;;18.10;93.80;;;;;;5116100;28;20189;-90
2023/09/13 01:23:50;;;;;;;39.95;29.50;;;18.10;93.80;;;;;;5115817;28;20550;-90
2023/09/13 01:26:27;;;;;;;48.15;32.78;;;18.10;93.90;;;;;;5115443;28;20185;-90
2023/09/13 01:28:55;;;;;;;54.85;33.50;;;18.10;94.00;;;;;;5115831;28;20178;-89
2023/09/13 01:31:21;;;;;;;44.33;32.30;;;18.10;94.10;;;;;;5117371;28;20261;-90
2023/09/13 01:33:47;;;;;;;45.03;31.40;;;18.20;94.10;;;;;;5115540;28;20197;-90
2023/09/13 01:36:13;;;;;;;43.17;31.88;;;18.10;94.20;;;;;;5115647;28;20205;-89
2023/09/13 01:38:39;;;;;;;49.15;32.08;;;18.10;94.20;;;;;;5115606;28;20216;-89
2023/09/13 01:41:22;;;;;;;44.53;31.77;;;18.10;94.30;;;;;;5115950;28;20194;-89
2023/09/13 01:43:53;;;;;;;46.22;32.25;;;18.10;94.30;;;;;;5115737;28;20196;-89
2023/09/13 01:46:19;;;;;;;42.05;30.20;;;18.10;94.40;;;;;;5116311;28;20203;-89
2023/09/13 01:48:45;;;;;;;45.03;29.40;;;18.10;94.40;;;;;;5116487;28;20174;-90
2023/09/13 01:51:11;;;;;;;40.25;28.80;;;18.20;94.50;;;;;;5116916;28;20169;-89
2023/09/13 01:53:46;;;;;;;39.78;28.20;;;18.10;94.50;;;;;;5118148;28;20315;-89
2023/09/13 01:56:12;;;;;;;39.30;26.35;;;18.10;94.50;;;;;;5117141;28;20215;-91
2023/09/13 01:58:37;;;;;;;37.90;26.65;;;18.10;94.60;;;;;;5116759;28;20261;-90
2023/09/13 02:01:03;;;;;;;41.72;27.83;;;18.10;94.60;;;;;;5116007;28;20184;-90
2023/09/13 02:03:28;;;;;;;44.70;26.77;;;18.00;94.70;;;;;;5115368;28;20194;-90
2023/09/13 02:05:54;;;;;;;40.03;26.45;;;18.10;94.80;;;;;;5115946;28;20176;-90
2023/09/13 02:08:19;;;;;;;38.70;26.17;;;18.00;94.80;;;;;;5116593;28;20174;-90
2023/09/13 02:10:48;;;;;;;44.22;26.08;;;18.00;94.80;;;;;;5119067;28;20166;-90
2023/09/13 02:13:14;;;;;;;41.47;25.10;;;18.00;94.80;;;;;;5116692;28;20197;-90
2023/09/13 02:15:40;;;;;;;36.28;24.83;;;17.90;94.80;;;;;;5117203;28;20170;-89
2023/09/13 02:18:06;;;;;;;37.88;25.15;;;17.90;94.90;;;;;;5116414;28;20190;-90
2023/09/13 02:20:32;;;;;;;36.40;23.20;;;17.80;94.80;;;;;;5117090;28;20174;-90
2023/09/13 02:22:57;;;;;;;38.30;24.33;;;17.80;94.90;;;;;;5116758;28;20173;-89
2023/09/13 02:25:23;;;;;;;32.63;21.30;;;17.70;94.80;;;;;;5117163;28;20170;-90
2023/09/13 02:27:49;;;;;;;32.03;20.58;;;17.70;94.80;;;;;;5117319;28;20200;-90
2023/09/13 02:30:14;;;;;;;29.73;21.05;;;17.60;94.80;;;;;;5118090;28;20177;-91
2023/09/13 02:32:40;;;;;;;29.42;19.42;;;17.50;94.80;;;;;;5116752;28;20170;-90
2023/09/13 02:35:07;;;;;;;22.50;18.17;;;17.50;94.80;;;;;;5115478;28;20193;-90
2023/09/13 02:37:32;;;;;;;21.98;18.05;;;17.40;94.80;;;;;;5115372;28;20197;-91
2023/09/13 02:39:58;;;;;;;30.40;17.83;;;17.40;94.80;;;;;;5115311;28;20181;-89
2023/09/13 02:42:24;;;;;;;22.77;17.27;;;17.40;94.80;;;;;;5119277;28;20184;-91
2023/09/13 02:44:50;;;;;;;22.60;16.70;;;17.30;94.70;;;;;;5119524;28;20194;-90
2023/09/13 02:47:16;;;;;;;26.08;15.98;;;17.30;94.70;;;;;;5119226;28;20184;-92
2023/09/13 02:49:41;;;;;;;18.95;15.90;;;17.30;94.70;;;;;;5120725;28;20206;-91
2023/09/13 02:52:07;;;;;;;24.15;15.80;;;17.20;94.70;;;;;;5124669;28;20173;-91
2023/09/13 02:54:32;;;;;;;20.88;16.23;;;17.20;94.70;;;;;;5121276;28;20233;-91
2023/09/13 02:56:58;;;;;;;17.02;15.27;;;17.20;94.70;;;;;;5117945;28;20198;-91
2023/09/13 02:59:24;;;;;;;19.83;14.95;;;17.10;94.80;;;;;;5118337;28;20166;-92
2023/09/13 03:01:50;;;;;;;21.30;14.63;;;17.10;94.80;;;;;;5118570;28;20173;-92
2023/09/13 03:04:15;;;;;;;18.25;15.80;;;17.10;94.80;;;;;;5118239;28;20568;-92
2023/09/13 03:06:41;;;;;;;20.38;15.07;;;17.10;94.80;;;;;;5118528;28;20173;-92
2023/09/13 03:09:07;;;;;;;18.50;14.95;;;17.10;94.80;;;;;;5124836;28;20242;-91
2023/09/13 03:11:35;;;;;;;17.38;15.77;;;17.00;94.80;;;;;;5125576;28;20281;-91
2023/09/13 03:14:01;;;;;;;19.65;15.55;;;17.00;94.80;;;;;;5126334;28;20194;-91
2023/09/13 03:16:27;;;;;;;19.10;15.43;;;17.00;94.80;;;;;;5125273;28;20197;-91
2023/09/13 03:18:54;;;;;;;18.05;15.85;;;16.90;94.80;;;;;;5127570;28;20179;-91
2023/09/13 03:21:20;;;;;;;19.08;15.95;;;16.90;94.80;;;;;;5121539;28;20166;-90
2023/09/13 03:23:50;;;;;;;19.35;15.85;;;16.80;94.80;;;;;;5119481;28;20189;-90
2023/09/13 03:26:24;;;;;;;17.15;15.40;;;16.80;94.80;;;;;;5118755;28;20166;-90
2023/09/13 03:28:52;;;;;;;15.95;14.38;;;16.70;94.90;;;;;;5121039;28;20158;-91
2023/09/13 03:31:19;;;;;;;16.02;14.07;;;16.70;94.90;;;;;;5119166;28;20174;-91
2023/09/13 03:33:46;;;;;;;15.63;14.10;;;16.70;94.90;;;;;;5119350;28;20244;-90
2023/09/13 03:36:12;;;;;;;14.38;12.93;;;16.70;94.90;;;;;;5118754;28;20229;-90
2023/09/13 03:38:41;;;;;;;14.50;13.13;;;16.70;94.90;;;;;;5118813;28;20190;-91
2023/09/13 03:41:08;;;;;;;12.73;11.57;;;16.70;94.90;;;;;;5120091;28;20171;-91
2023/09/13 03:43:33;;;;;;;17.70;16.35;;;16.60;94.90;;;;;;5119020;28;20189;-90
2023/09/13 03:45:59;;;;;;;19.30;17.58;;;16.50;94.90;;;;;;5119439;28;20174;-92
2023/09/13 03:48:25;;;;;;;18.92;17.55;;;16.50;94.90;;;;;;5120360;28;20629;-91
2023/09/13 03:50:51;;;;;;;13.48;12.13;;;16.50;94.80;;;;;;5122510;28;20170;-91
2023/09/13 03:53:16;;;;;;;13.02;11.68;;;16.50;94.90;;;;;;5119455;28;20204;-91
2023/09/13 03:55:43;;;;;;;16.23;14.98;;;16.50;94.90;;;;;;5120411;28;20186;-90
2023/09/13 03:58:08;;;;;;;15.90;14.60;;;16.40;94.80;;;;;;5120678;28;20319;-90
2023/09/13 04:00:37;;;;;;;17.45;15.93;;;16.40;94.80;;;;;;5118364;28;20201;-90
2023/09/13 04:03:04;;;;;;;13.07;11.75;;;16.30;94.80;;;;;;5117643;28;20264;-90
2023/09/13 04:05:29;;;;;;;12.35;11.25;;;16.30;94.80;;;;;;5117009;28;20170;-90
2023/09/13 04:07:55;;;;;;;17.60;16.15;;;16.30;94.80;;;;;;5115686;28;20176;-90
2023/09/13 04:10:21;;;;;;;18.05;16.45;;;16.30;94.80;;;;;;5116359;28;20241;-91
2023/09/13 04:12:47;;;;;;;12.60;11.35;;;16.20;94.70;;;;;;5117520;28;20198;-91
2023/09/13 04:15:13;;;;;;;12.88;11.57;;;16.20;94.70;;;;;;5118861;28;20205;-91
2023/09/13 04:17:38;;;;;;;13.88;12.48;;;16.20;94.70;;;;;;5118821;28;20194;-91
2023/09/13 04:20:05;;;;;;;16.08;12.50;;;16.20;94.70;;;;;;5116644;28;20270;-90
2023/09/13 04:22:31;;;;;;;13.18;11.82;;;16.20;94.80;;;;;;5117200;28;20720;-91
2023/09/13 04:24:56;;;;;;;14.38;12.05;;;16.20;94.80;;;;;;5115107;28;20265;-90
2023/09/13 04:27:23;;;;;;;14.18;12.70;;;16.20;94.80;;;;;;5113871;28;20212;-90
2023/09/13 04:29:48;;;;;;;12.35;11.05;;;16.20;94.80;;;;;;5115165;28;20230;-91
2023/09/13 04:32:14;;;;;;;12.93;11.80;;;16.20;94.80;;;;;;5118104;28;20596;-90
2023/09/13 04:34:40;;;;;;;13.07;11.70;;;16.20;94.80;;;;;;5116528;28;20676;-90
2023/09/13 04:37:06;;;;;;;13.70;11.48;;;16.20;94.80;;;;;;5114311;28;20232;-90
2023/09/13 04:39:32;;;;;;;12.50;11.32;;;16.10;94.70;;;;;;5113946;28;20197;-90
2023/09/13 04:41:58;;;;;;;13.25;11.57;;;16.10;94.80;;;;;;5113642;28;20174;-90
2023/09/13 04:44:27;;;;;;;13.35;11.95;;;16.10;94.80;;;;;;5113446;28;20221;-89
2023/09/13 04:46:53;;;;;;;13.13;11.80;;;16.10;94.80;;;;;;5113972;28;20272;-89
2023/09/13 04:49:19;;;;;;;19.10;12.15;;;16.10;94.80;;;;;;5114751;28;20223;-90
2023/09/13 04:51:44;;;;;;;13.73;12.32;;;16.10;94.80;;;;;;5113588;28;20177;-90
2023/09/13 04:54:10;;;;;;;17.15;12.85;;;16.10;94.80;;;;;;5113274;28;20225;-90
2023/09/13 04:56:35;;;;;;;14.32;12.88;;;16.10;94.80;;;;;;5113156;28;20600;-90
2023/09/13 04:59:01;;;;;;;15.60;12.35;;;16.10;94.80;;;;;;5113508;28;20553;-90
2023/09/13 05:01:26;;;;;;;16.52;12.75;;;16.10;94.80;;;;;;5113088;28;20533;-90
2023/09/13 05:03:52;;;;;;;13.90;12.35;;;16.00;94.80;;;;;;5113109;28;20273;-91
2023/09/13 05:06:18;;;;;;;13.02;11.38;;;16.00;94.80;;;;;;5113275;28;20181;-91
2023/09/13 05:08:44;;;;;;;12.90;11.50;;;16.00;94.80;;;;;;5114018;28;20170;-90
2023/09/13 05:11:10;;;;;;;14.30;10.77;;;16.00;94.80;;;;;;5113561;28;20565;-90
2023/09/13 05:13:39;;;;;;;11.85;10.30;;;15.80;94.70;;;;;;5113678;28;20567;-90
2023/09/13 05:16:05;;;;;;;10.82;9.75;;;15.80;94.70;;;;;;5113358;28;20174;-90
2023/09/13 05:18:30;;;;;;;13.00;9.70;;;15.70;94.60;;;;;;5113514;28;20554;-90
2023/09/13 05:20:56;;;;;;;17.35;9.93;;;15.60;94.60;;;;;;5115366;28;20177;-90
2023/09/13 05:23:22;;;;;;;15.55;9.82;;;15.60;94.50;;;;;;5116718;28;20229;-90
2023/09/13 05:25:50;;;;;;;15.40;10.68;;;15.50;94.50;;;;;;5116622;28;20178;-89
2023/09/13 05:28:16;;;;;;;16.42;10.40;;;15.50;94.40;;;;;;5116610;28;20209;-90
2023/09/13 05:30:46;;;;;;;14.18;9.50;;;15.50;94.40;;;;;;5116661;28;20166;-90
2023/09/13 05:33:11;;;;;;;14.68;9.55;;;15.50;94.40;;;;;;5117658;27;20189;-89
2023/09/13 05:35:37;;;;;;;12.98;10.02;;;15.50;94.40;;;;;;5118151;27;20162;-89
2023/09/13 05:38:03;;;;;;;15.27;9.65;;;15.50;94.40;;;;;;5116924;28;20296;-89
2023/09/13 05:40:29;;;;;;;14.45;9.43;;;15.40;94.30;;;;;;5116911;28;20166;-90
2023/09/13 05:42:56;;;;;;;13.02;9.38;;;15.30;94.00;;;;;;5116551;28;20176;-90
2023/09/13 05:45:23;;;;;;;11.77;9.00;;;15.20;94.00;;;;;;5116181;28;20266;-90
2023/09/13 05:47:49;;;;;;;13.30;9.48;;;15.20;93.90;;;;;;5117537;28;20178;-87
2023/09/13 05:50:14;;;;;;;10.00;8.75;;;15.10;93.80;;;;;;5115959;28;20246;-89
2023/09/13 05:52:40;;;;;;;12.15;8.68;;;15.10;93.70;;;;;;5116334;28;20203;-89
2023/09/13 05:55:07;;;;;;;10.85;8.77;;;15.10;93.60;;;;;;5116734;28;20201;-89
2023/09/13 05:57:33;;;;;;;9.70;8.90;;;15.10;93.60;;;;;;5118280;28;20193;-89
2023/09/13 05:59:58;;;;;;;11.05;8.07;;;15.10;93.60;;;;;;5116575;28;20172;-89
2023/09/13 06:02:24;;;;;;;10.05;8.60;;;15.10;93.60;;;;;;5117587;28;20177;-89
2023/09/13 06:04:49;;;;;;;9.25;8.23;;;15.20;93.50;;;;;;5117337;28;20680;-90
2023/09/13 06:07:15;;;;;;;12.70;8.63;;;15.20;93.60;;;;;;5116567;28;20264;-90
2023/09/13 06:09:40;;;;;;;16.40;9.50;;;15.10;93.50;;;;;;5116787;28;20180;-91
2023/09/13 06:12:06;;;;;;;15.60;9.13;;;15.10;93.40;;;;;;5116344;28;20177;-91
2023/09/13 06:14:32;;;;;;;14.45;9.73;;;15.10;93.40;;;;;;5116730;28;20198;-90
2023/09/13 06:16:58;;;;;;;18.48;9.45;;;15.00;93.40;;;;;;5116816;28;20592;-90
2023/09/13 06:19:23;;;;;;;14.93;9.02;;;15.10;93.40;;;;;;5116880;28;20666;-91
2023/09/13 06:21:49;;;;;;;10.20;9.10;;;15.10;93.40;;;;;;5117633;28;20173;-89
2023/09/13 06:24:14;;;;;;;10.32;9.32;;;15.10;93.40;;;;;;5117611;28;20680;-89
2023/09/13 06:26:40;;;;;;;12.80;9.43;;;15.10;93.30;;;;;;5116858;28;20166;-89
2023/09/13 06:29:06;;;;;;;16.50;9.15;;;15.10;93.30;;;;;;5117022;28;20269;-89
2023/09/13 06:31:32;;;;;;;13.70;9.23;;;15.10;93.30;;;;;;5117036;28;20177;-90
2023/09/13 06:33:58;;;;;;;15.77;9.27;;;15.10;93.40;;;;;;5116733;28;20208;-89
2023/09/13 06:36:24;;;;;;;12.85;8.77;;;15.20;93.30;;;;;;5118484;28;20202;-89
2023/09/13 06:38:50;;;;;;;12.27;8.50;;;15.20;93.40;;;;;;5117386;28;20170;-89
2023/09/13 06:41:15;;;;;;;14.65;8.55;;;15.20;93.10;;;;;;5116029;28;20181;-89
2023/09/13 06:43:43;;;;;;;8.80;8.00;;;15.00;92.90;;;;;;5115963;28;20197;-89
2023/09/13 06:46:09;;;;;;;10.93;8.25;;;15.00;92.90;;;;;;5115585;28;20178;-89
2023/09/13 06:48:35;;;;;;;13.75;8.73;;;15.00;92.80;;;;;;5115339;28;20212;-89
2023/09/13 06:51:01;;;;;;;19.27;8.73;;;15.10;92.90;;;;;;5115464;27;20173;-89
2023/09/13 06:53:26;;;;;;;10.60;7.53;;;15.20;92.90;;;;;;5115244;28;20567;-90
2023/09/13 06:55:52;;;;;;;15.88;8.73;;;15.20;92.80;;;;;;5115605;28;20338;-90
2023/09/13 06:58:17;;;;;;;13.18;8.25;;;15.30;92.90;;;;;;5114827;28;20193;-89
2023/09/13 07:00:43;;;;;;;11.30;7.88;;;15.30;92.80;;;;;;5114833;28;20174;-89
2023/09/13 07:03:08;;;;;;;11.25;8.20;;;15.30;92.60;;;;;;5114548;28;20181;-89
2023/09/13 07:05:34;;;;;;;12.05;7.50;;;15.30;92.50;;;;;;5115125;28;20173;-89
2023/09/13 07:08:00;;;;;;;10.32;8.40;;;15.30;92.30;;;;;;5116677;28;20216;-89
2023/09/13 07:10:27;;;;;;;15.57;8.75;;;15.40;92.20;;;;;;5115842;28;20219;-90
2023/09/13 07:12:52;;;;;;;17.42;9.77;;;15.40;92.10;;;;;;5115546;28;20666;-91
2023/09/13 07:15:18;;;;;;;13.25;9.02;;;15.30;91.90;;;;;;5114724;28;20177;-89
2023/09/13 07:17:44;;;;;;;12.07;8.30;;;15.30;91.70;;;;;;5114353;28;20201;-89
2023/09/13 07:20:11;;;;;;;11.32;7.78;;;15.40;91.70;;;;;;5114053;28;20660;-90
2023/09/13 07:22:37;;;;;;;9.95;8.00;;;15.30;91.60;;;;;;5114049;28;20174;-89
2023/09/13 07:25:04;;;;;;;11.07;8.75;;;15.30;91.30;;;;;;5114130;28;20732;-88
2023/09/13 07:27:30;;;;;;;10.02;8.43;;;15.30;91.10;;;;;;5114067;28;20174;-89
2023/09/13 07:29:56;;;;;;;14.02;8.98;;;15.30;91.00;;;;;;5116726;28;20170;-88
2023/09/13 07:32:21;;;;;;;16.08;8.43;;;15.30;90.90;;;;;;5115001;28;20188;-88
2023/09/13 07:34:47;;;;;;;10.70;8.23;;;15.30;90.60;;;;;;5116504;28;20221;-89
2023/09/13 07:37:12;;;;;;;15.10;8.80;;;15.30;90.40;;;;;;5116540;28;20284;-88
2023/09/13 07:39:39;;;;;;;14.73;9.07;;;15.30;90.40;;;;;;5114975;28;20166;-89
2023/09/13 07:42:05;;;;;;;14.43;9.02;;;15.20;90.20;;;;;;5114958;28;20676;-89
2023/09/13 07:44:31;;;;;;;12.80;9.07;;;15.30;90.20;;;;;;5114335;28;20228;-89
2023/09/13 07:46:57;;;;;;;12.48;8.95;;;15.30;90.00;;;;;;5115209;28;20170;-89
2023/09/13 07:49:25;;;;;;;16.48;9.48;;;15.40;90.10;;;;;;5113951;28;20204;-89
2023/09/13 07:51:51;;;;;;;14.00;9.05;;;15.30;89.90;;;;;;5114457;28;20181;-89
2023/09/13 07:54:17;;;;;;;14.30;8.95;;;15.30;90.00;;;;;;5113415;28;20198;-89
2023/09/13 07:56:43;;;;;;;15.23;9.15;;;15.40;90.00;;;;;;5113578;28;20300;-89
2023/09/13 07:59:13;;;;;;;14.95;9.68;;;15.40;89.70;;;;;;5113652;28;20206;-89
2023/09/13 08:01:39;;;;;;;11.63;9.40;;;15.40;89.70;;;;;;5114015;28;20724;-89
2023/09/13 08:04:05;;;;;;;11.02;8.85;;;15.40;89.60;;;;;;5114830;28;20218;-89
2023/09/13 08:07:17;;;;;;;;;;;;;;;;;;;;;
2023/09/13 08:09:43;;;;;;;20.55;10.45;;;15.50;89.40;;;;;;5112444;27;20694;-88
2023/09/13 08:12:08;;;;;;;18.35;10.15;;;15.40;89.20;;;;;;5113966;28;20261;-89
2023/09/13 08:14:34;;;;;;;11.32;10.05;;;15.40;89.10;;;;;;5115671;28;20676;-91
2023/09/13 08:20:10;;;;;;;14.23;9.50;;;15.40;89.10;;;;;;5114337;28;20273;-90
2023/09/13 08:22:36;;;;;;;17.42;9.65;;;15.40;89.10;;;;;;5114199;28;20691;-88
2023/09/13 08:25:03;;;;;;;14.90;9.27;;;15.50;89.20;;;;;;5113239;28;20284;-90
2023/09/13 08:27:29;;;;;;;15.32;9.45;;;15.40;88.70;;;;;;5114000;28;20177;-89
2023/09/13 08:29:55;;;;;;;18.90;10.23;;;15.40;88.70;;;;;;5113324;28;20174;-89
2023/09/13 08:32:21;;;;;;;15.07;9.52;;;15.50;88.60;;;;;;5114438;28;20170;-90
2023/09/13 08:34:47;;;;;;;14.80;9.85;;;15.40;88.60;;;;;;5112775;28;20202;-88
2023/09/13 08:37:12;;;;;;;17.48;9.90;;;15.40;88.70;;;;;;5112831;28;20209;-89
2023/09/13 08:39:38;;;;;;;17.05;9.90;;;15.50;88.90;;;;;;5112580;28;20166;-89
2023/09/13 08:42:04;;;;;;;14.38;9.18;;;15.60;89.20;;;;;;5112402;28;20175;-89
2023/09/13 08:44:31;;;;;;;15.25;8.95;;;15.60;89.30;;;;;;5112409;28;20190;-90
2023/09/13 08:47:02;;;;;;;16.70;9.07;;;15.60;89.30;;;;;;5112486;28;20181;-90
2023/09/13 08:49:29;;;;;;;16.70;9.00;;;15.70;89.40;;;;;;5112495;28;20181;-88
2023/09/13 08:51:55;;;;;;;10.48;9.02;;;15.70;89.50;;;;;;5112283;28;20656;-90
2023/09/13 08:54:22;;;;;;;12.57;9.23;;;15.70;89.50;;;;;;5112532;28;20278;-90
2023/09/13 08:56:48;;;;;;;13.85;9.77;;;15.70;89.50;;;;;;5115881;28;20208;-89
2023/09/13 08:59:15;;;;;;;12.23;9.35;;;15.80;89.40;;;;;;5116291;28;20174;-89
2023/09/13 09:01:47;;;;;;;10.48;9.43;;;15.80;89.30;;;;;;5116227;28;20205;-89
2023/09/13 09:04:14;;;;;;;10.50;9.40;;;15.70;89.00;;;;;;5117772;28;20192;-89
2023/09/13 09:06:41;;;;;;;14.43;9.85;;;15.70;88.90;;;;;;5116194;28;20260;-89
2023/09/13 09:09:07;;;;;;;13.68;9.63;;;15.70;88.80;;;;;;5116022;28;20184;-90
2023/09/13 09:11:35;;;;;;;11.68;9.50;;;15.70;88.80;;;;;;5116216;28;20205;-90
2023/09/13 09:14:02;;;;;;;12.35;9.23;;;15.80;88.90;;;;;;5116060;28;20205;-89
2023/09/13 09:16:28;;;;;;;11.32;9.32;;;15.70;88.60;;;;;;5115751;28;20221;-90
2023/09/13 09:18:55;;;;;;;21.23;10.13;;;15.70;88.40;;;;;;5115851;28;20178;-89
2023/09/13 09:21:21;;;;;;;10.63;9.63;;;15.70;88.30;;;;;;5115690;28;20256;-90
2023/09/13 09:23:46;;;;;;;17.00;10.07;;;15.80;88.30;;;;;;5115505;28;20193;-89
2023/09/13 09:26:12;;;;;;;12.68;9.75;;;15.80;88.20;;;;;;5117695;28;20170;-90
2023/09/13 09:28:37;;;;;;;13.82;10.10;;;15.70;88.00;;;;;;5116620;28;20538;-89
2023/09/13 09:31:04;;;;;;;14.82;10.38;;;15.70;87.70;;;;;;5116313;28;20201;-87
2023/09/13 09:33:30;;;;;;;12.55;10.63;;;15.60;87.30;;;;;;5115686;28;20221;-89
2023/09/13 09:35:58;;;;;;;18.27;11.82;;;15.60;87.10;;;;;;5116410;28;20496;-89
2023/09/13 09:38:28;;;;;;;14.73;10.50;;;15.70;87.00;;;;;;5116974;28;20182;-89
2023/09/13 09:41:00;;;;;;;14.13;11.13;;;15.60;87.00;;;;;;5115484;28;20177;-88
2023/09/13 09:43:26;;;;;;;15.98;10.63;;;15.70;87.30;;;;;;5116733;28;20557;-89
2023/09/13 09:45:53;;;;;;;10.88;9.88;;;15.70;87.10;;;;;;5115623;28;20174;-89
2023/09/13 09:48:19;;;;;;;16.05;10.35;;;15.70;86.80;;;;;;5116627;28;20167;-89
2023/09/13 09:50:51;;;;;;;18.02;10.20;;;15.80;86.60;;;;;;5115277;28;20227;-89
2023/09/13 09:53:17;;;;;;;14.35;10.70;;;15.90;86.50;;;;;;5115227;28;20201;-89
2023/09/13 09:55:46;;;;;;;11.75;10.27;;;15.90;86.20;;;;;;5115028;28;20562;-88
2023/09/13 09:58:13;;;;;;;11.85;10.48;;;16.00;85.90;;;;;;5115490;28;20275;-89
2023/09/13 10:00:52;;;;;;;14.45;11.15;;;16.10;85.90;;;;;;5115021;28;20174;-88
2023/09/13 10:03:19;;;;;;;14.52;11.70;;;16.10;85.60;;;;;;5114859;28;20189;-89
2023/09/13 10:06:08;;;;;;;16.73;11.68;;;16.20;85.20;;;;;;5114222;28;20560;-89
2023/09/13 10:08:39;;;;;;;12.48;10.60;;;16.30;84.90;;;;;;5115917;28;20257;-90
2023/09/13 10:11:09;;;;;;;14.15;11.30;;;16.30;84.70;;;;;;5115999;28;20226;-89
2023/09/13 10:13:36;;;;;;;16.00;11.32;;;16.40;84.20;;;;;;5115450;28;20661;-89
2023/09/13 10:16:04;;;;;;;12.82;11.57;;;16.30;83.70;;;;;;5114656;28;20174;-89
2023/09/13 10:18:33;;;;;;;14.25;11.02;;;16.50;84.00;;;;;;5115877;28;20166;-88
2023/09/13 10:21:01;;;;;;;21.05;13.13;;;16.50;84.30;;;;;;5115355;28;20170;-89
2023/09/13 10:23:37;;;;;;;22.70;19.83;;;16.40;83.00;;;;;;5114518;28;20197;-89
2023/09/13 10:26:06;;;;;;;24.25;22.35;;;16.40;82.40;;;;;;5114537;28;20161;-90
2023/09/13 10:28:35;;;;;;;27.27;24.95;;;16.50;83.00;;;;;;5115379;28;20167;-87
2023/09/13 10:31:02;;;;;;;16.35;13.18;;;16.40;82.30;;;;;;5114797;28;20258;-88
2023/09/13 10:33:32;;;;;;;19.73;13.68;;;16.40;82.50;;;;;;5113980;28;20194;-89
2023/09/13 10:36:01;;;;;;;15.15;12.80;;;16.40;83.10;;;;;;5115407;28;20645;-89
2023/09/13 10:38:42;;;;;;;24.02;21.83;;;16.40;82.20;;;;;;5114299;28;20220;-88
2023/09/13 10:41:13;;;;;;;25.40;23.40;;;16.30;82.20;;;;;;5114236;28;20611;-89
2023/09/13 10:43:40;;;;;;;14.57;13.38;;;16.40;82.20;;;;;;5115526;28;20188;-89
2023/09/13 10:46:08;;;;;;;14.85;13.68;;;16.30;81.40;;;;;;5114227;28;20170;-87
2023/09/13 10:48:34;;;;;;;28.55;26.13;;;16.30;80.70;;;;;;5114248;28;20260;-88
2023/09/13 10:51:01;;;;;;;26.55;24.15;;;16.10;79.90;;;;;;5114100;28;20174;-88
2023/09/13 10:53:26;;;;;;;28.15;25.67;;;16.10;80.30;;;;;;5113861;28;20233;-88
2023/09/13 10:55:53;;;;;;;14.00;12.48;;;16.20;80.70;;;;;;5115182;28;20217;-88
2023/09/13 10:58:20;;;;;;;18.67;12.57;;;16.10;81.90;;;;;;5114936;28;20768;-89
2023/09/13 11:00:50;;;;;;;14.27;12.52;;;16.00;82.10;;;;;;5114960;28;20712;-89
2023/09/13 11:03:17;;;;;;;12.90;11.85;;;15.90;82.90;;;;;;5114772;28;20284;-90
2023/09/13 11:05:46;;;;;;;16.45;13.45;;;15.80;83.00;;;;;;5113664;28;20170;-88
2023/09/13 11:08:28;;;;;;;13.93;12.60;;;15.80;83.10;;;;;;5113939;28;20551;-89
2023/09/13 11:10:54;;;;;;;14.90;12.20;;;15.80;83.50;;;;;;5113802;28;20520;-90
2023/09/13 11:13:29;;;;;;;13.98;12.00;;;15.70;83.90;;;;;;5114877;28;20272;-90
2023/09/13 11:15:56;;;;;;;16.38;12.38;;;15.60;84.50;;;;;;5113537;28;20169;-90
2023/09/13 11:18:25;;;;;;;12.70;11.50;;;15.50;84.80;;;;;;5113945;28;20190;-90
2023/09/13 11:20:52;;;;;;;12.57;11.30;;;15.50;85.10;;;;;;5114669;28;20162;-89
2023/09/13 11:23:18;;;;;;;11.80;10.68;;;15.40;85.10;;;;;;5114417;28;20186;-90
2023/09/13 11:25:57;;;;;;;16.55;10.90;;;15.30;85.60;;;;;;5113797;28;20596;-89
2023/09/13 11:28:38;;;;;;;11.88;10.45;;;15.30;86.30;;;;;;5113916;28;20203;-90
2023/09/13 11:31:05;;;;;;;10.55;9.60;;;15.30;86.30;;;;;;5113660;28;20185;-90
2023/09/13 11:33:37;;;;;;;11.77;10.55;;;15.30;86.70;;;;;;5114016;28;20194;-90
2023/09/13 11:36:03;;;;;;;13.52;10.35;;;15.30;86.60;;;;;;5113909;28;20191;-91
2023/09/13 11:38:30;;;;;;;12.63;11.02;;;15.20;86.70;;;;;;5113253;28;20261;-91
2023/09/13 11:40:57;;;;;;;15.50;10.35;;;15.30;87.00;;;;;;5113740;28;20177;-90
2023/09/13 11:43:31;;;;;;;9.95;8.88;;;15.30;87.10;;;;;;5114551;28;20182;-90
2023/09/13 11:45:58;;;;;;;13.77;9.60;;;15.10;87.40;;;;;;5114292;28;20157;-90
2023/09/13 11:48:32;;;;;;;10.27;8.98;;;15.10;87.50;;;;;;5112989;28;20559;-91
2023/09/13 11:51:12;;;;;;;11.27;9.00;;;15.10;87.90;;;;;;5113140;28;20178;-90
2023/09/13 11:53:39;;;;;;;9.63;8.60;;;15.00;88.00;;;;;;5113239;28;20197;-90
2023/09/13 11:56:04;;;;;;;10.30;9.25;;;14.90;87.90;;;;;;5112713;28;20189;-91
2023/09/13 11:58:34;;;;;;;9.07;8.38;;;15.00;88.00;;;;;;5112904;28;20587;-90
2023/09/13 12:01:01;;;;;;;10.48;8.85;;;15.10;87.70;;;;;;5112736;28;20166;-90
2023/09/13 12:03:41;;;;;;;10.10;9.10;;;15.10;87.50;;;;;;5113039;28;20194;-90
2023/09/13 12:06:07;;;;;;;9.75;8.90;;;15.20;87.30;;;;;;5113662;28;20165;-89
2023/09/13 12:08:36;;;;;;;10.40;9.32;;;15.20;87.50;;;;;;5112624;28;20594;-89
2023/09/13 12:11:04;;;;;;;10.88;9.80;;;15.20;87.00;;;;;;5112687;28;20705;-89
2023/09/13 12:13:45;;;;;;;10.40;9.18;;;15.20;86.70;;;;;;5115429;28;20197;-88
2023/09/13 12:16:12;;;;;;;10.30;9.55;;;15.20;86.60;;;;;;5113734;28;20637;-89
2023/09/13 12:18:38;;;;;;;10.98;10.02;;;15.20;86.00;;;;;;5112690;28;20272;-89
2023/09/13 12:21:06;;;;;;;12.43;11.40;;;15.10;85.00;;;;;;5112691;28;20178;-89
2023/09/13 12:23:42;;;;;;;11.57;10.68;;;15.10;84.10;;;;;;5113788;28;20568;-87
2023/09/13 12:26:10;;;;;;;11.60;10.55;;;15.10;84.10;;;;;;5113229;28;20175;-90
2023/09/13 12:28:38;;;;;;;12.65;11.60;;;15.20;84.50;;;;;;5113851;28;20637;-90
2023/09/13 12:31:09;;;;;;;13.05;11.85;;;15.20;84.00;;;;;;5117925;28;20568;-89
2023/09/13 12:33:42;;;;;;;12.98;11.68;;;15.20;83.70;;;;;;5116723;28;20186;-89
2023/09/13 12:36:08;;;;;;;13.68;12.57;;;15.20;83.20;;;;;;5117458;28;20162;-89